METAR Data
IDs: Format: Raw Decoded Include TAF

Data at: 1953 UTC 17 Nov 2019

PGUM 171854Z 09010KT 10SM FEW020 27/24 A2985 RMK AO2 SLP098 T02670244 $